Time,TemperatureF,DewpointF,PressureIn,WindDirection,WindDirectionDegrees,WindSpeedMPH,WindSpeedGustMPH,Humidity,HourlyPrecipIn,Conditions,Clouds,dailyrainin,SoftwareType,DateUTC
2013-01-28 07:33:00,47.0,46.0,-100.00,West,260,7.0,9.0,99,-99.99,,,-99.99,,2013-01-28 13:33:00,
2013-01-28 07:42:00,47.0,46.0,-100.00,West,260,7.0,9.0,99,-99.99,,,-99.99,,2013-01-28 13:42:00,
2013-01-28 07:53:00,47.0,46.0,-100.00,WSW,255,7.0,9.0,99,-99.99,,,-99.99,,2013-01-28 13:53:00,
2013-01-28 08:03:00,47.0,46.0,-100.00,WSW,255,7.0,9.0,99,-99.99,,,-99.99,,2013-01-28 14:03:00,
2013-01-28 08:12:00,47.0,47.0,-100.00,WSW,255,7.0,10.0,99,-99.99,,,-99.99,,2013-01-28 14:12:00,
2013-01-28 08:22:00,47.0,47.0,-100.00,WSW,245,5.0,8.0,99,-99.99,,,-99.99,,2013-01-28 14:22:00,
2013-01-28 08:33:00,47.0,47.0,-100.00,WSW,245,5.0,8.0,99,-99.99,,,-99.99,,2013-01-28 14:33:00,
2013-01-28 08:43:00,47.0,47.0,-100.00,West,260,5.0,9.0,99,-99.99,,,-99.99,,2013-01-28 14:43:00,
2013-01-28 08:53:00,46.0,46.0,-100.00,WNW,285,6.0,9.0,99,-99.99,,,-99.99,,2013-01-28 14:53:00,
2013-01-28 09:03:00,46.0,46.0,-100.00,WNW,285,6.0,9.0,99,-99.99,,,-99.99,,2013-01-28 15:03:00,
2013-01-28 09:12:00,45.0,45.0,-100.00,NW,315,7.0,10.0,99,-99.99,,,-99.99,,2013-01-28 15:12:00,
2013-01-28 09:23:00,45.0,45.0,-100.00,NNW,340,8.0,10.0,99,-99.99,,,-99.99,,2013-01-28 15:23:00,
2013-01-28 09:33:00,45.0,45.0,-100.00,NNW,340,8.0,10.0,99,-99.99,,,-99.99,,2013-01-28 15:33:00,
2013-01-28 09:43:00,45.0,45.0,-100.00,NNW,340,9.0,11.0,99,-99.99,,,-99.99,,2013-01-28 15:43:00,
2013-01-28 09:53:00,45.0,45.0,-100.00,NNW,340,6.0,9.0,99,-99.99,,,-99.99,,2013-01-28 15:53:00,
2013-01-28 10:04:00,45.0,45.0,-100.00,NNW,340,6.0,9.0,99,-99.99,,,-99.99,,2013-01-28 16:04:00,
2013-01-28 10:12:00,44.0,44.0,-100.00,WNW,295,2.0,4.0,99,-99.99,,,-99.99,,2013-01-28 16:12:00,
2013-01-28 10:22:00,45.0,44.0,-100.00,NW,325,4.0,5.0,99,-99.99,,,-99.99,,2013-01-28 16:22:00,
2013-01-28 10:32:00,45.0,44.0,-100.00,NW,325,4.0,5.0,99,-99.99,,,-99.99,,2013-01-28 16:32:00,
2013-01-28 10:43:00,44.0,44.0,-100.00,NNE,20,3.0,6.0,99,-99.99,,,-99.99,,2013-01-28 16:43:00,
2013-01-28 10:53:00,44.0,44.0,-100.00,North,0,4.0,6.0,99,-99.99,,,-99.99,,2013-01-28 16:53:00,
2013-01-28 11:02:00,44.0,44.0,-100.00,North,0,4.0,6.0,99,-99.99,,,-99.99,,2013-01-28 17:02:00,
2013-01-28 11:12:00,44.0,44.0,-100.00,NNW,345,4.0,6.0,99,-99.99,,,-99.99,,2013-01-28 17:12:00,
2013-01-28 11:23:00,44.0,43.0,-100.00,NNW,340,4.0,5.0,99,-99.99,,,-99.99,,2013-01-28 17:23:00,
2013-01-28 11:32:00,44.0,43.0,-100.00,NNW,340,4.0,5.0,99,-99.99,,,-99.99,,2013-01-28 17:32:00,
2013-01-28 11:42:00,44.0,44.0,-100.00,North,350,4.0,6.0,99,-99.99,,,-99.99,,2013-01-28 17:42:00,
2013-01-28 11:53:00,44.0,43.0,-100.00,North,0,6.0,9.0,99,-99.99,,,-99.99,,2013-01-28 17:53:00,
2013-01-28 12:03:00,44.0,43.0,-100.00,North,0,6.0,9.0,99,-99.99,,,-99.99,,2013-01-28 18:03:00,
2013-01-28 12:12:00,44.0,44.0,-100.00,NE,45,6.0,9.0,99,-99.99,,,-99.99,,2013-01-28 18:12:00,
2013-01-28 12:23:00,44.0,44.0,-100.00,NE,40,5.0,7.0,99,-99.99,,,-99.99,,2013-01-28 18:23:00,
2013-01-28 12:33:00,44.0,44.0,-100.00,NE,40,5.0,7.0,99,-99.99,,,-99.99,,2013-01-28 18:33:00,
2013-01-28 12:42:00,45.0,44.0,-100.00,NE,40,4.0,7.0,99,-99.99,,,-99.99,,2013-01-28 18:42:00,
2013-01-28 12:52:00,45.0,45.0,-100.00,ESE,105,2.0,7.0,99,-99.99,,,-99.99,,2013-01-28 18:52:00,
2013-01-28 13:02:00,45.0,45.0,-100.00,ESE,105,2.0,7.0,99,-99.99,,,-99.99,,2013-01-28 19:02:00,
2013-01-28 13:12:00,46.0,45.0,-100.00,ESE,110,1.0,5.0,99,-99.99,,,-99.99,,2013-01-28 19:12:00,
2013-01-28 13:22:00,46.0,46.0,-100.00,East,100,2.0,4.0,99,-99.99,,,-99.99,,2013-01-28 19:22:00,
2013-01-28 13:32:00,46.0,46.0,-100.00,East,100,2.0,4.0,99,-99.99,,,-99.99,,2013-01-28 19:32:00,
2013-01-28 13:42:00,46.0,46.0,-100.00,East,80,2.0,5.0,99,-99.99,,,-99.99,,2013-01-28 19:42:00,
2013-01-28 13:52:00,46.0,46.0,-100.00,East,85,5.0,7.0,99,-99.99,,,-99.99,,2013-01-28 19:52:00,
2013-01-28 14:02:00,46.0,46.0,-100.00,East,85,5.0,7.0,99,-99.99,,,-99.99,,2013-01-28 20:02:00,
2013-01-28 14:12:00,47.0,46.0,-100.00,East,80,6.0,9.0,99,-99.99,,,-99.99,,2013-01-28 20:12:00,
2013-01-28 14:22:00,47.0,47.0,-100.00,ESE,105,5.0,9.0,99,-99.99,,,-99.99,,2013-01-28 20:22:00,
2013-01-28 14:33:00,47.0,47.0,-100.00,ESE,105,5.0,9.0,99,-99.99,,,-99.99,,2013-01-28 20:33:00,
2013-01-28 14:42:00,47.0,47.0,-100.00,East,85,6.0,9.0,99,-99.99,,,-99.99,,2013-01-28 20:42:00,
2013-01-28 14:53:00,48.0,47.0,-100.00,East,80,10.0,12.0,99,-99.99,,,-99.99,,2013-01-28 20:53:00,
2013-01-28 15:03:00,48.0,47.0,-100.00,East,80,10.0,12.0,99,-99.99,,,-99.99,,2013-01-28 21:03:00,
2013-01-28 15:12:00,48.0,48.0,-100.00,East,100,6.0,11.0,99,-99.99,,,-99.99,,2013-01-28 21:12:00,
2013-01-28 15:22:00,48.0,48.0,-100.00,East,100,8.0,11.0,99,-99.99,,,-99.99,,2013-01-28 21:22:00,
2013-01-28 15:33:00,48.0,48.0,-100.00,East,100,8.0,11.0,99,-99.99,,,-99.99,,2013-01-28 21:33:00,
2013-01-28 15:43:00,48.0,48.0,-100.00,ESE,105,8.0,11.0,99,-99.99,,,-99.99,,2013-01-28 21:43:00,
2013-01-28 15:53:00,49.0,48.0,-100.00,ESE,110,9.0,14.0,99,-99.99,,,-99.99,,2013-01-28 21:53:00,
2013-01-28 16:02:00,49.0,48.0,-100.00,ESE,110,9.0,14.0,99,-99.99,,,-99.99,,2013-01-28 22:02:00,
2013-01-28 16:12:00,49.0,49.0,-100.00,ESE,110,11.0,15.0,99,-99.99,,,-99.99,,2013-01-28 22:12:00,
2013-01-28 16:23:00,49.0,49.0,-100.00,ESE,110,11.0,16.0,99,-99.99,,,-99.99,,2013-01-28 22:23:00,
2013-01-28 16:32:00,49.0,49.0,-100.00,ESE,110,11.0,16.0,99,-99.99,,,-99.99,,2013-01-28 22:32:00,
2013-01-28 16:42:00,49.0,49.0,-100.00,ESE,110,11.0,16.0,99,-99.99,,,-99.99,,2013-01-28 22:42:00,
2013-01-28 16:52:00,49.0,49.0,-100.00,East,85,11.0,16.0,99,-99.99,,,-99.99,,2013-01-28 22:52:00,
2013-01-28 17:02:00,49.0,49.0,-100.00,East,85,11.0,16.0,99,-99.99,,,-99.99,,2013-01-28 23:02:00,
2013-01-28 17:12:00,49.0,49.0,-100.00,ESE,110,11.0,14.0,99,-99.99,,,-99.99,,2013-01-28 23:12:00,
2013-01-28 17:22:00,49.0,48.0,-100.00,ESE,110,14.0,18.0,99,-99.99,,,-99.99,,2013-01-28 23:22:00,
2013-01-28 17:32:00,48.0,48.0,-100.00,ESE,105,12.0,18.0,99,-99.99,,,-99.99,,2013-01-28 23:32:00,
2013-01-28 17:42:00,48.0,48.0,-100.00,ESE,105,12.0,18.0,99,-99.99,,,-99.99,,2013-01-28 23:42:00,
2013-01-28 17:53:00,48.0,48.0,-100.00,ESE,110,14.0,18.0,99,-99.99,,,-99.99,,2013-01-28 23:53:00,
2013-01-28 18:02:00,48.0,48.0,-100.00,ESE,110,14.0,18.0,99,-99.99,,,-99.99,,2013-01-29 00:02:00,
2013-01-28 18:12:00,48.0,48.0,-100.00,ESE,115,12.0,17.0,99,-99.99,,,-99.99,,2013-01-29 00:12:00,
2013-01-28 18:22:00,48.0,48.0,-100.00,East,100,14.0,19.0,99,-99.99,,,-99.99,,2013-01-29 00:22:00,
2013-01-28 18:32:00,48.0,48.0,-100.00,East,100,14.0,19.0,99,-99.99,,,-99.99,,2013-01-29 00:32:00,
2013-01-28 18:42:00,48.0,48.0,-100.00,ESE,110,14.0,20.0,99,-99.99,,,-99.99,,2013-01-29 00:42:00,
2013-01-28 18:52:00,48.0,47.0,-100.00,ESE,105,14.0,19.0,99,-99.99,,,-99.99,,2013-01-29 00:52:00,
2013-01-28 19:02:00,48.0,47.0,-100.00,ESE,105,14.0,19.0,99,-99.99,,,-99.99,,2013-01-29 01:02:00,
2013-01-28 19:12:00,47.0,47.0,-100.00,ESE,110,14.0,20.0,99,-99.99,,,-99.99,,2013-01-29 01:12:00,
2013-01-28 19:23:00,48.0,48.0,-100.00,ESE,110,16.0,20.0,99,-99.99,,,-99.99,,2013-01-29 01:23:00,
2013-01-28 19:32:00,48.0,48.0,-100.00,ESE,110,16.0,20.0,99,-99.99,,,-99.99,,2013-01-29 01:32:00,
2013-01-28 19:42:00,48.0,48.0,-100.00,ESE,115,14.0,19.0,99,-99.99,,,-99.99,,2013-01-29 01:42:00,
2013-01-28 19:53:00,48.0,48.0,-100.00,ESE,110,14.0,20.0,99,-99.99,,,-99.99,,2013-01-29 01:53:00,
2013-01-28 20:02:00,48.0,48.0,-100.00,ESE,110,14.0,20.0,99,-99.99,,,-99.99,,2013-01-29 02:02:00,
2013-01-28 20:12:00,49.0,48.0,-100.00,ESE,110,16.0,21.0,99,-99.99,,,-99.99,,2013-01-29 02:12:00,
2013-01-28 20:22:00,49.0,49.0,-100.00,ESE,115,14.0,21.0,99,-99.99,,,-99.99,,2013-01-29 02:22:00,
2013-01-28 20:33:00,49.0,49.0,-100.00,ESE,115,14.0,21.0,99,-99.99,,,-99.99,,2013-01-29 02:33:00,
2013-01-28 20:42:00,49.0,49.0,-100.00,SE,130,13.0,21.0,99,-99.99,,,-99.99,,2013-01-29 02:42:00,
2013-01-28 20:53:00,50.0,50.0,-100.00,SE,125,13.0,19.0,99,-99.99,,,-99.99,,2013-01-29 02:53:00,
2013-01-28 21:03:00,50.0,50.0,-100.00,SE,125,13.0,19.0,99,-99.99,,,-99.99,,2013-01-29 03:03:00,
2013-01-28 21:12:00,50.0,50.0,-100.00,SE,125,14.0,23.0,99,-99.99,,,-99.99,,2013-01-29 03:12:00,
2013-01-28 21:22:00,50.0,50.0,-100.00,ESE,120,15.0,21.0,99,-99.99,,,-99.99,,2013-01-29 03:22:00,
2013-01-28 21:32:00,50.0,50.0,-100.00,ESE,120,15.0,21.0,99,-99.99,,,-99.99,,2013-01-29 03:32:00,
2013-01-28 21:42:00,50.0,50.0,-100.00,SE,130,16.0,23.0,99,-99.99,,,-99.99,,2013-01-29 03:42:00,
2013-01-28 21:53:00,51.0,50.0,-100.00,SE,140,17.0,24.0,99,-99.99,,,-99.99,,2013-01-29 03:53:00,
2013-01-28 22:02:00,51.0,51.0,-100.00,SE,145,18.0,22.0,99,-99.99,,,-99.99,,2013-01-29 04:02:00,
2013-01-28 22:11:00,51.0,51.0,-100.00,SE,145,18.0,22.0,99,-99.99,,,-99.99,,2013-01-29 04:11:00,
2013-01-28 22:22:00,53.0,52.0,-100.00,SE,145,19.0,26.0,99,-99.99,,,-99.99,,2013-01-29 04:22:00,
2013-01-28 22:32:00,53.0,52.0,-100.00,SSE,155,16.0,23.0,99,-99.99,,,-99.99,,2013-01-29 04:32:00,
2013-01-28 22:42:00,53.0,52.0,-100.00,SSE,155,16.0,23.0,99,-99.99,,,-99.99,,2013-01-29 04:42:00,
2013-01-28 22:52:00,54.0,53.0,-100.00,SSE,160,19.0,26.0,99,-99.99,,,-99.99,,2013-01-29 04:52:00,
2013-01-28 23:03:00,54.0,53.0,-100.00,SSE,160,19.0,26.0,99,-99.99,,,-99.99,,2013-01-29 05:03:00,
2013-01-28 23:12:00,54.0,53.0,-100.00,SSE,165,21.0,28.0,99,-99.99,,,-99.99,,2013-01-29 05:12:00,
2013-01-28 23:21:00,54.0,53.0,-100.00,SSE,165,23.0,30.0,99,-99.99,,,-99.99,,2013-01-29 05:21:00,
2013-01-28 23:32:00,54.0,53.0,-100.00,SSE,165,23.0,30.0,99,-99.99,,,-99.99,,2013-01-29 05:32:00,
2013-01-28 23:42:00,54.0,53.0,-100.00,SSE,165,24.0,28.0,99,-99.99,,,-99.99,,2013-01-29 05:42:00,
2013-01-28 23:52:00,54.0,54.0,-100.00,SSE,165,21.0,26.0,99,-99.99,,,-99.99,,2013-01-29 05:52:00,